Time;durP1;ratioP1;P1;durP2;ratioP2;P2;SDS_P1;SDS_P2;PMS_P1;PMS_P2;Temp;Humidity;BMP_temperature;BMP_pressure;BME280_temperature;BME280_humidity;BME280_pressure;Samples;Min_cycle;Max_cycle;Signal;HPM_P1;HPM_P2
2023/07/13 00:01:42;;;;;;;;;;;;;;;28.08;56.21;101426.50;5038567;28;20401;-91
2023/07/13 00:07:13;;;;;;;;;;;;;;;28.07;56.14;101427.41;5015533;28;19925;-89
2023/07/13 00:12:59;;;;;;;;;;;;;;;28.06;56.02;101419.38;4992234;28;19937;-90
2023/07/13 00:18:48;;;;;;;;;;;;;;;28.04;56.38;101422.06;4993927;28;20016;-91
2023/07/13 00:24:21;;;;;;;;;;;;;;;28.05;56.12;101418.47;5004768;28;19947;-90
2023/07/13 00:29:49;;;;;;;;;;;;;;;28.04;56.05;101418.50;4987577;28;20350;-91
2023/07/13 00:35:17;;;;;;;;;;;;;;;28.02;56.19;101411.34;4992876;28;19920;-90
2023/07/13 00:40:48;;;;;;;;;;;;;;;28.02;56.30;101402.38;5005773;28;19920;-89
2023/07/13 00:46:24;;;;;;;;;;;;;;;28.01;56.24;101392.56;5030502;28;19963;-90
2023/07/13 00:51:56;;;;;;;;;;;;;;;27.98;56.25;101389.88;5029877;28;19928;-89
2023/07/13 01:03:37;;;;;;;;;;;;;;;27.95;56.47;101372.00;5029703;28;20592;-90
2023/07/13 01:12:30;;;;;;;;;;;;;;;27.92;56.35;101372.06;4985228;28;19914;-90
2023/07/13 01:18:14;;;;;;;;;;;;;;;27.95;56.52;101368.44;4969262;28;19921;-90
2023/07/13 01:23:44;;;;;;;;;;;;;;;27.94;56.38;101367.56;4971520;28;20030;-91
2023/07/13 01:29:11;;;;;;;;;;;;;;;27.91;56.49;101364.88;4972690;28;20131;-91
2023/07/13 01:34:42;;;;;;;;;;;;;;;27.92;56.49;101360.41;4985639;28;20442;-90
2023/07/13 01:40:11;;;;;;;;;;;;;;;27.91;56.38;101362.19;5016255;28;20285;-90
2023/07/13 01:45:39;;;;;;;;;;;;;;;27.88;56.53;101351.50;5028020;28;19939;-90
2023/07/13 01:51:07;;;;;;;;;;;;;;;27.88;56.42;101354.19;5032111;28;19971;-89
2023/07/13 01:56:35;;;;;;;;;;;;;;;27.87;56.52;101349.69;5019223;28;19964;-91
2023/07/13 02:02:04;;;;;;;;;;;;;;;27.89;56.37;101341.66;5026112;28;19920;-90
2023/07/13 02:07:32;;;;;;;;;;;;;;;27.88;56.36;101348.81;5034239;28;19920;-90
2023/07/13 02:13:00;;;;;;;;;;;;;;;27.85;56.40;101345.22;5033471;28;20099;-91
2023/07/13 02:18:28;;;;;;;;;;;;;;;27.84;56.64;101341.66;5024007;28;19920;-91
2023/07/13 02:23:57;;;;;;;;;;;;;;;27.85;56.75;101345.22;5033123;28;19945;-92
2023/07/13 02:29:25;;;;;;;;;;;;;;;27.83;56.63;101337.19;5037189;28;20465;-91
2023/07/13 02:34:54;;;;;;;;;;;;;;;27.81;56.50;101333.63;5034124;28;19920;-92
2023/07/13 02:40:22;;;;;;;;;;;;;;;27.82;56.19;101338.09;5032592;28;19920;-91
2023/07/13 02:45:51;;;;;;;;;;;;;;;27.79;56.57;101348.84;5023968;28;19923;-91
2023/07/13 02:51:19;;;;;;;;;;;;;;;27.80;56.49;101345.28;5023781;28;19936;-90
2023/07/13 02:56:48;;;;;;;;;;;;;;;27.77;56.68;101343.50;5034440;28;19971;-93
2023/07/13 03:02:16;;;;;;;;;;;;;;;27.77;56.67;101347.97;5034642;28;19936;-91
2023/07/13 03:07:44;;;;;;;;;;;;;;;27.73;56.82;101351.56;5023318;28;20365;-90
2023/07/13 03:13:15;;;;;;;;;;;;;;;27.74;56.60;101343.50;5036243;28;20043;-90
2023/07/13 03:18:43;;;;;;;;;;;;;;;27.72;56.70;101348.00;5032524;28;19924;-91
2023/07/13 03:24:12;;;;;;;;;;;;;;;27.74;56.47;101345.31;5030557;28;20389;-89
2023/07/13 03:29:40;;;;;;;;;;;;;;;27.73;56.68;101346.19;5023992;28;19920;-90
2023/07/13 03:35:08;;;;;;;;;;;;;;;27.70;56.92;101351.59;5034221;28;19920;-89
2023/07/13 03:40:36;;;;;;;;;;;;;;;27.69;56.60;101363.25;5025469;28;20027;-89
2023/07/13 03:46:05;;;;;;;;;;;;;;;27.68;56.96;101366.81;5016981;28;19924;-89
2023/07/13 03:51:33;;;;;;;;;;;;;;;27.67;56.72;101365.94;5023115;28;19940;-88
2023/07/13 03:57:01;;;;;;;;;;;;;;;27.65;56.78;101369.56;5035578;28;19929;-89
2023/07/13 04:02:29;;;;;;;;;;;;;;;27.63;56.67;101372.22;5042551;28;19920;-90
2023/07/13 04:07:58;;;;;;;;;;;;;;;27.61;56.95;101368.66;5041193;28;19971;-84
2023/07/13 04:13:26;;;;;;;;;;;;;;;27.61;56.79;101366.88;5034218;28;19920;-86
2023/07/13 04:18:55;;;;;;;;;;;;;;;27.61;56.69;101357.94;5033312;28;19919;-86
2023/07/13 04:24:23;;;;;;;;;;;;;;;27.61;57.06;101358.81;5031137;28;20400;-83
2023/07/13 04:29:51;;;;;;;;;;;;;;;27.60;56.97;101361.50;5040766;28;19963;-86
2023/07/13 04:35:22;;;;;;;;;;;;;;;27.59;56.82;101365.97;5030460;28;19919;-86
2023/07/13 04:40:51;;;;;;;;;;;;;;;27.59;57.12;101363.31;5031586;28;20336;-86
2023/07/13 04:46:19;;;;;;;;;;;;;;;27.60;56.98;101375.84;5028774;28;19925;-86
2023/07/13 04:51:47;;;;;;;;;;;;;;;27.58;57.37;101371.34;5029153;28;20289;-86
2023/07/13 04:57:16;;;;;;;;;;;;;;;27.56;57.17;101371.38;5032273;28;20027;-87
2023/07/13 05:02:45;;;;;;;;;;;;;;;27.55;57.35;101374.97;5020920;28;19936;-86
2023/07/13 05:08:13;;;;;;;;;;;;;;;27.54;57.34;101385.72;5021796;28;20318;-86
2023/07/13 05:13:41;;;;;;;;;;;;;;;27.55;56.95;101390.16;5030260;28;20004;-86
2023/07/13 05:16:11;;;;;;;;;;;;;;;27.53;57.23;101379.44;5026479;28;20368;-87
2023/07/13 05:18:37;;;;;;;;;;;;;;;27.54;56.96;101389.28;5022565;28;19917;-87
2023/07/13 05:24:07;;;;;;;;;;;;;;;27.54;56.57;101394.66;5020949;28;20047;-86
2023/07/13 05:26:51;;;;;;;;;;;;;;;27.52;56.61;101400.94;5021397;28;20386;-87
2023/07/13 05:29:17;;;;;;;;;;;;;;;27.55;56.26;101387.50;5008203;28;19958;-88
2023/07/13 05:31:49;;;;;;;;;;;;;;;27.55;56.34;101387.50;5029648;28;19936;-84
2023/07/13 05:34:14;;;;;;;;;;;;;;;27.54;55.83;101394.66;5020128;28;19917;-86
2023/07/13 05:39:42;;;;;;;;;;;;;;;27.56;55.87;101389.28;5025112;28;20345;-91
2023/07/13 05:42:39;;;;;;;;;;;;;;;27.55;55.64;101395.53;5026383;28;19917;-89
2023/07/13 05:45:06;;;;;;;;;;;;;;;27.54;55.72;101391.97;5008257;28;20008;-89
2023/07/13 05:50:34;;;;;;;;;;;;;;;27.55;55.66;101392.84;5019001;28;19919;-90
2023/07/13 05:53:28;;;;;;;;;;;;;;;27.54;55.46;101391.09;5031631;28;19917;-87
2023/07/13 05:55:54;;;;;;;;;;;;;;;27.56;55.61;101397.34;5021898;28;19917;-88
2023/07/13 06:01:23;;;;;;;;;;;;;;;27.57;55.56;101391.94;5030440;28;19920;-90
2023/07/13 06:04:20;;;;;;;;;;;;;;;27.57;55.36;101389.25;5023347;28;20398;-91
2023/07/13 06:06:45;;;;;;;;;;;;;;;27.57;55.51;101404.47;5010608;28;19921;-85
2023/07/13 06:09:28;;;;;;;;;;;;;;;27.57;55.61;101394.63;5013823;28;20392;-89
2023/07/13 06:11:54;;;;;;;;;;;;;;;27.58;55.27;101395.50;5002444;28;19976;-87
2023/07/13 06:17:22;;;;;;;;;;;;;;;27.60;55.39;101399.06;5028200;28;20397;-88
2023/07/13 06:19:53;;;;;;;;;;;;;;;27.59;55.54;101406.22;5006260;28;19943;-87
2023/07/13 06:22:18;;;;;;;;;;;;;;;27.56;55.17;101398.22;5025744;28;19952;-88
2023/07/13 06:24:53;;;;;;;;;;;;;;;27.57;55.50;101402.66;5020934;28;20390;-89
2023/07/13 06:27:19;;;;;;;;;;;;;;;27.59;55.13;101400.88;5022927;28;19914;-87
2023/07/13 06:32:47;;;;;;;;;;;;;;;27.62;55.16;101399.94;5023231;28;19964;-86
2023/07/13 06:35:43;;;;;;;;;;;;;;;27.61;55.10;101392.81;5005218;28;19948;-87
2023/07/13 06:38:09;;;;;;;;;;;;;;;27.64;55.21;101397.25;5022958;28;19914;-87
2023/07/13 06:43:37;;;;;;;;;;;;;;;27.68;55.22;101380.25;5019130;28;19921;-87
2023/07/13 06:46:33;;;;;;;;;;;;;;;27.65;55.21;101391.00;5024701;28;20377;-91
2023/07/13 06:48:59;;;;;;;;;;;;;;;27.64;55.35;101381.16;5027314;28;19920;-90
2023/07/13 06:54:40;;;;;;;;;;;;;;;27.63;55.91;101387.44;5027647;28;19936;-90
2023/07/13 06:57:27;;;;;;;;;;;;;;;27.62;55.59;101378.47;5017615;28;19913;-90
2023/07/13 07:02:55;;;;;;;;;;;;;;;27.67;56.08;101365.94;5033497;28;19919;-91
2023/07/13 07:05:24;;;;;;;;;;;;;;;27.65;55.42;101365.06;5022585;28;20302;-91
2023/07/13 07:08:21;;;;;;;;;;;;;;;27.67;55.75;101365.94;5026425;28;19913;-93
2023/07/13 07:13:51;;;;;;;;;;;;;;;27.69;55.81;101364.16;5022383;28;19936;-95
2023/07/13 07:19:54;;;;;;;;;;;;;;;27.71;55.51;101375.75;5030156;28;20401;-90
2023/07/13 07:28:57;;;;;;;;;;;;;;;27.70;55.67;101367.72;4953843;29;19921;-92
2023/07/13 07:34:24;;;;;;;;;;;;;;;27.71;56.09;101365.03;4967628;28;19940;-90
2023/07/13 07:46:11;;;;;;;;;;;;;;;27.72;55.90;101368.59;4957450;28;19981;-91
2023/07/13 07:51:39;;;;;;;;;;;;;;;27.71;55.78;101378.44;4968301;28;19956;-91
2023/07/13 08:08:25;;;;;;;;;;;;;;;27.74;55.89;101366.78;4961077;28;20035;-92
2023/07/13 08:13:53;;;;;;;;;;;;;;;27.78;55.73;101377.47;4985555;28;20417;-92
2023/07/13 08:19:22;;;;;;;;;;;;;;;27.77;55.68;101372.13;5001809;28;20370;-91
2023/07/13 08:24:55;;;;;;;;;;;;;;;27.79;55.73;101376.59;5012016;28;19916;-90
2023/07/13 08:30:54;;;;;;;;;;;;;;;27.79;55.85;101375.69;5015811;28;19928;-92
2023/07/13 08:36:25;;;;;;;;;;;;;;;27.81;56.02;101372.09;5011118;28;19929;-90
2023/07/13 08:48:22;;;;;;;;;;;;;;;27.82;55.66;101360.44;5003145;28;19932;-92
2023/07/13 08:53:50;;;;;;;;;;;;;;;27.84;55.60;101356.88;5016959;28;19917;-91
2023/07/13 09:10:24;;;;;;;;;;;;;;;27.87;55.36;101360.44;5014729;28;19964;-90
2023/07/13 09:22:40;;;;;;;;;;;;;;;27.92;55.83;101352.34;5027946;28;20401;-89
2023/07/13 09:28:30;;;;;;;;;;;;;;;27.91;55.51;101348.78;4937187;28;20042;-91
2023/07/13 09:34:12;;;;;;;;;;;;;;;27.93;55.41;101354.13;4928231;28;19950;-89
2023/07/13 09:45:49;;;;;;;;;;;;;;;27.93;54.96;101349.66;4951866;29;19975;-88
2023/07/13 09:51:17;;;;;;;;;;;;;;;27.95;54.75;101352.34;4932661;29;19930;-90
2023/07/13 10:03:03;;;;;;;;;;;;;;;27.98;54.67;101346.94;4948298;28;19966;-89
2023/07/13 10:06:03;;;;;;;;;;;;;;;27.98;54.49;101333.50;5024239;28;20000;-89
2023/07/13 10:11:51;;;;;;;;;;;;;;;27.97;54.65;101338.00;5026575;28;19920;-88
2023/07/13 10:17:33;;;;;;;;;;;;;;;28.00;54.20;101337.97;5028213;28;19996;-90
2023/07/13 10:20:18;;;;;;;;;;;;;;;28.00;54.48;101334.38;5024405;28;19913;-90
2023/07/13 10:25:47;;;;;;;;;;;;;;;28.00;54.36;101323.63;5016249;28;19921;-90
2023/07/13 10:31:52;;;;;;;;;;;;;;;28.00;54.47;101316.50;4954664;28;20070;-89
2023/07/13 10:40:05;;;;;;;;;;;;;;;28.04;54.09;101300.34;5030970;28;19928;-90
2023/07/13 10:42:35;;;;;;;;;;;;;;;27.97;53.84;101303.09;5011533;28;19975;-89
2023/07/13 10:45:00;;;;;;;;;;;;;;;27.99;54.51;101293.22;5015733;28;20032;-89
2023/07/13 10:47:27;;;;;;;;;;;;;;;27.96;52.67;101297.72;5030842;28;20008;-89
